createdAt,value
2022-10-11T00:01:09.357Z,100290.38
2022-10-11T00:03:38.355Z,100286.97
2022-10-11T00:06:09.242Z,100286.19
2022-10-11T00:08:38.173Z,100287.91
2022-10-11T00:11:08.749Z,100286.19
2022-10-11T00:13:37.657Z,100282.69
2022-10-11T00:16:11.288Z,100291.38
2022-10-11T00:18:40.621Z,100280.03
2022-10-11T00:21:10.878Z,100283.44
2022-10-11T00:23:40.266Z,100281.75
2022-10-11T00:26:10.423Z,100280.97
2022-10-11T00:28:39.374Z,100281.78
2022-10-11T00:31:11.164Z,100286.19
2022-10-11T00:33:39.773Z,100286.19
2022-10-11T00:36:09.757Z,100283.63
2022-10-11T00:38:38.844Z,100279.31
2022-10-11T00:41:08.146Z,100275.84
2022-10-11T00:43:37.413Z,100278.47
2022-10-11T00:46:26.289Z,100278.50
2022-10-11T00:48:58.685Z,100276.84
2022-10-11T00:51:37.774Z,100268.25
2022-10-11T00:54:09.073Z,100268.25
2022-10-11T00:56:39.894Z,100266.59
2022-10-11T00:59:13.836Z,100270.13
2022-10-11T01:01:44.133Z,100270.28
2022-10-11T01:04:12.863Z,100267.69
2022-10-11T01:06:42.704Z,100258.28
2022-10-11T01:09:12.368Z,100258.31
2022-10-11T01:11:43.802Z,100266.22
2022-10-11T01:14:34.389Z,100255.16
2022-10-11T01:17:15.069Z,100257.81
2022-10-11T01:19:56.284Z,100256.97
2022-10-11T01:22:50.208Z,100256.16
2022-10-11T01:25:28.220Z,100258.81
2022-10-11T01:28:27.924Z,100260.69
2022-10-11T01:31:06.142Z,100259.06
2022-10-11T01:33:40.222Z,100260.06
2022-10-11T01:36:17.931Z,100261.88
2022-10-11T01:38:52.088Z,100252.47
2022-10-11T01:41:26.878Z,100250.75
2022-10-11T01:44:00.177Z,100250.81
2022-10-11T01:46:32.161Z,100246.50
2022-10-11T01:49:03.846Z,100247.41
2022-10-11T01:51:35.874Z,100249.19
2022-10-11T01:54:56.945Z,100249.22
2022-10-11T01:57:52.620Z,100246.78
2022-10-11T02:00:24.003Z,100244.28
2022-10-11T02:03:09.796Z,100249.44
2022-10-11T02:05:46.743Z,100249.50
2022-10-11T02:08:21.999Z,100243.50
2022-10-11T02:10:55.932Z,100245.28
2022-10-11T02:13:31.656Z,100246.28
2022-10-11T02:16:03.730Z,100242.91
2022-10-11T02:18:38.584Z,100237.78
2022-10-11T02:21:10.310Z,100234.31
2022-10-11T02:23:44.174Z,100241.31
2022-10-11T02:26:13.895Z,100243.03
2022-10-11T02:28:45.497Z,100246.53
2022-10-11T02:31:17.937Z,100242.25
2022-10-11T02:33:56.964Z,100247.47
2022-10-11T02:36:33.299Z,100238.81
2022-10-11T02:39:08.851Z,100243.16
2022-10-11T02:41:40.626Z,100243.97
2022-10-11T02:44:13.881Z,100237.03
2022-10-11T02:46:45.328Z,100241.34
2022-10-11T02:49:16.873Z,100238.72
2022-10-11T02:51:45.790Z,100239.50
2022-10-11T02:54:14.593Z,100242.00
2022-10-11T02:56:43.218Z,100240.97
2022-10-11T02:59:11.873Z,100236.41
2022-10-11T03:01:40.543Z,100235.31
2022-10-11T03:04:09.559Z,100230.75
2022-10-11T03:06:39.527Z,100232.22
2022-10-11T03:09:08.287Z,100226.94
2022-10-11T03:11:36.950Z,100240.56
2022-10-11T03:14:05.667Z,100235.22
2022-10-11T03:16:34.340Z,100234.19
2022-10-11T03:19:03.447Z,100227.94
2022-10-11T03:21:32.231Z,100233.84
2022-10-11T03:24:02.078Z,100231.22
2022-10-11T03:26:30.990Z,100232.00
2022-10-11T03:28:59.610Z,100234.63
2022-10-11T03:31:28.560Z,100242.41
2022-10-11T03:33:57.134Z,100233.66
2022-10-11T03:36:28.658Z,100240.59
2022-10-11T03:38:57.341Z,100246.75
2022-10-11T03:41:27.308Z,100251.97
2022-10-11T03:43:55.922Z,100246.75
2022-10-11T03:46:24.530Z,100253.69
2022-10-11T03:48:53.093Z,100258.81
2022-10-11T03:51:21.761Z,100258.72
2022-10-11T03:53:50.454Z,100259.53
2022-10-11T03:56:18.947Z,100255.16
2022-10-11T03:58:49.016Z,100255.16
2022-10-11T04:01:19.533Z,100259.38
2022-10-11T04:03:48.480Z,100256.69
2022-10-11T04:06:17.194Z,100260.13
2022-10-11T04:08:45.650Z,100252.28
2022-10-11T04:11:14.374Z,100253.94
2022-10-11T04:13:43.126Z,100247.78
2022-10-11T04:16:13.968Z,100255.50
2022-10-11T04:18:43.323Z,100264.09
2022-10-11T04:21:14.449Z,100262.22
2022-10-11T04:23:43.314Z,100268.22
2022-10-11T04:26:12.037Z,100272.53
2022-10-11T04:28:40.750Z,100276.75
2022-10-11T04:31:12.666Z,100275.00
2022-10-11T04:33:41.391Z,100276.59
2022-10-11T04:36:10.211Z,100277.38
2022-10-11T04:38:38.817Z,100283.34
2022-10-11T04:41:08.721Z,100278.06
2022-10-11T04:43:38.012Z,100277.16
2022-10-11T04:46:07.474Z,100278.91
2022-10-11T04:48:37.833Z,100288.47
2022-10-11T04:51:07.451Z,100285.75
2022-10-11T04:53:36.552Z,100289.94
2022-10-11T04:56:08.528Z,100289.84
2022-10-11T04:58:37.986Z,100286.34
2022-10-11T05:01:06.781Z,100290.56
2022-10-11T05:03:40.780Z,100290.56
2022-10-11T05:06:10.097Z,100299.16
2022-10-11T05:08:41.869Z,100305.91
2022-10-11T05:11:17.137Z,100303.97
2022-10-11T05:13:46.342Z,100302.97
2022-10-11T05:16:18.774Z,100311.53
2022-10-11T05:18:48.734Z,100314.84
2022-10-11T05:21:20.044Z,100324.34
2022-10-11T05:23:50.702Z,100320.78
2022-10-11T05:26:20.862Z,100324.19
2022-10-11T05:28:49.827Z,100324.88
2022-10-11T05:31:18.708Z,100326.47
2022-10-11T05:33:49.573Z,100326.31
2022-10-11T05:36:18.430Z,100339.94
2022-10-11T05:38:47.092Z,100338.88
2022-10-11T05:41:16.728Z,100341.28
2022-10-11T05:43:46.299Z,100341.91
2022-10-11T05:46:15.006Z,100353.06
2022-10-11T05:48:43.876Z,100362.44
2022-10-11T05:51:14.464Z,100365.72
2022-10-11T05:53:43.057Z,100363.75
2022-10-11T05:56:22.008Z,100371.28
2022-10-11T05:58:51.129Z,100377.81
2022-10-11T06:01:21.752Z,100374.75
2022-10-11T06:03:50.553Z,100383.94
2022-10-11T06:06:21.649Z,100386.19
2022-10-11T06:08:50.679Z,100385.88
2022-10-11T06:11:21.846Z,100384.78
2022-10-11T06:13:55.486Z,100386.28
2022-10-11T06:16:27.064Z,100395.78
2022-10-11T06:18:56.499Z,100393.97
2022-10-11T06:21:26.896Z,100406.81
2022-10-11T06:24:01.123Z,100403.97
2022-10-11T06:26:30.516Z,100406.31
2022-10-11T06:28:59.307Z,100404.09
2022-10-11T06:31:28.073Z,100405.44
2022-10-11T06:33:57.341Z,100422.41
2022-10-11T06:36:28.108Z,100421.81
2022-10-11T06:38:57.319Z,100418.50
2022-10-11T06:41:27.489Z,100424.13
2022-10-11T06:43:57.517Z,100417.56
2022-10-11T06:46:28.377Z,100418.88
2022-10-11T06:48:57.864Z,100422.06
2022-10-11T06:51:30.374Z,100425.19
2022-10-11T06:54:02.019Z,100428.59
2022-10-11T06:56:31.812Z,100441.63
2022-10-11T06:59:01.577Z,100445.16
2022-10-11T07:01:30.251Z,100442.44
2022-10-11T07:04:00.871Z,100444.78
2022-10-11T07:06:32.004Z,100437.53
2022-10-11T07:09:02.049Z,100437.25
2022-10-11T07:11:31.055Z,100430.13
2022-10-11T07:14:01.223Z,100437.03
2022-10-11T07:16:30.125Z,100444.69
2022-10-11T07:19:01.216Z,100446.28
2022-10-11T07:21:33.563Z,100440.63
2022-10-11T07:24:02.753Z,100458.81
2022-10-11T07:26:38.170Z,100461.84
2022-10-11T07:29:08.425Z,100459.63
2022-10-11T07:31:39.108Z,100469.50
2022-10-11T07:34:07.494Z,100466.97
2022-10-11T07:36:37.524Z,100469.63
2022-10-11T07:39:08.500Z,100469.72
2022-10-11T07:41:43.145Z,100475.28
2022-10-11T07:44:14.520Z,100481.50
2022-10-11T07:46:43.145Z,100486.97
2022-10-11T07:49:11.889Z,100474.81
2022-10-11T07:51:41.772Z,100490.69
2022-10-11T07:54:11.403Z,100492.69
2022-10-11T07:56:40.604Z,100498.06
2022-10-11T07:59:09.113Z,100505.13
2022-10-11T08:01:37.875Z,100491.50
2022-10-11T08:04:06.867Z,100503.56
2022-10-11T08:06:36.733Z,100503.97
2022-10-11T08:09:06.949Z,100510.25
2022-10-11T08:11:37.665Z,100510.13
2022-10-11T08:14:11.459Z,100504.88
2022-10-11T08:16:41.074Z,100510.81
2022-10-11T08:19:09.738Z,100515.22
2022-10-11T08:21:38.478Z,100514.72
2022-10-11T08:24:09.450Z,100518.16
2022-10-11T08:26:38.077Z,100520.88
2022-10-11T08:29:07.368Z,100519.69
2022-10-11T08:31:36.165Z,100524.25
2022-10-11T08:34:04.947Z,100523.94
2022-10-11T08:36:33.764Z,100523.03
2022-10-11T08:39:02.976Z,100534.34
2022-10-11T08:41:40.745Z,100534.34
2022-10-11T08:44:22.235Z,100542.84
2022-10-11T08:47:00.540Z,100551.22
2022-10-11T08:49:34.646Z,100550.34
2022-10-11T08:52:07.300Z,100547.88
2022-10-11T08:54:49.598Z,100551.50
2022-10-11T08:57:20.866Z,100558.59
2022-10-11T08:59:52.997Z,100554.69
2022-10-11T09:02:38.952Z,100559.59
2022-10-11T09:05:18.079Z,100552.81
2022-10-11T09:07:57.841Z,100553.47
2022-10-11T09:10:59.188Z,100559.19
2022-10-11T09:13:46.011Z,100563.59
2022-10-11T09:16:26.685Z,100577.69
2022-10-11T09:19:16.938Z,100578.41
2022-10-11T09:21:53.602Z,100582.78
2022-10-11T09:24:48.615Z,100585.97
2022-10-11T09:27:37.864Z,100592.88
2022-10-11T09:30:16.586Z,100587.97
2022-10-11T09:32:49.482Z,100590.53
2022-10-11T09:35:20.534Z,100594.44
2022-10-11T09:37:59.255Z,100585.66
2022-10-11T09:40:40.559Z,100590.59
2022-10-11T09:43:10.569Z,100595.66
2022-10-11T09:45:49.209Z,100595.94
2022-10-11T09:48:22.152Z,100591.56
2022-10-11T09:50:53.205Z,100607.13
2022-10-11T09:53:23.054Z,100602.25
2022-10-11T09:55:55.369Z,100599.72
2022-10-11T09:58:30.762Z,100610.44
2022-10-11T10:01:07.882Z,100610.47
2022-10-11T10:03:38.629Z,100612.16
2022-10-11T10:06:10.436Z,100605.22
2022-10-11T10:08:39.043Z,100609.88
2022-10-11T10:11:09.735Z,100622.63
2022-10-11T10:13:44.829Z,100619.56
2022-10-11T10:16:27.279Z,100623.81
2022-10-11T10:18:58.453Z,100631.56
2022-10-11T10:21:29.901Z,100629.31
2022-10-11T10:24:00.326Z,100625.31
2022-10-11T10:26:28.942Z,100627.78
2022-10-11T10:29:05.090Z,100638.19
2022-10-11T10:32:02.053Z,100634.16
2022-10-11T10:34:31.924Z,100637.50
2022-10-11T10:37:04.083Z,100645.31
2022-10-11T10:39:40.861Z,100638.97
2022-10-11T10:42:16.396Z,100642.25
2022-10-11T10:44:48.732Z,100649.84
2022-10-11T10:47:29.841Z,100649.31
2022-10-11T10:50:03.935Z,100642.47
2022-10-11T10:52:50.511Z,100650.38
2022-10-11T10:55:26.212Z,100648.97
2022-10-11T10:58:05.825Z,100652.47
2022-10-11T11:00:43.608Z,100648.78
2022-10-11T11:03:22.812Z,100650.56
2022-10-11T11:06:02.499Z,100657.81
2022-10-11T11:08:51.027Z,100656.84
2022-10-11T11:11:42.479Z,100653.78
2022-10-11T11:14:24.457Z,100654.47
2022-10-11T11:17:01.293Z,100659.91
2022-10-11T11:19:42.102Z,100670.44
2022-10-11T11:22:19.020Z,100667.88
2022-10-11T11:24:59.953Z,100664.47
2022-10-11T11:27:45.435Z,100662.31
2022-10-11T11:30:20.595Z,100661.47
2022-10-11T11:32:59.009Z,100659.78
2022-10-11T11:35:35.782Z,100662.19
2022-10-11T11:38:12.744Z,100657.97
2022-10-11T11:40:44.233Z,100669.41
2022-10-11T11:43:22.231Z,100661.84
2022-10-11T11:45:56.672Z,100659.47
2022-10-11T11:48:26.857Z,100662.69
2022-10-11T11:51:03.058Z,100661.06
2022-10-11T11:53:54.882Z,100661.94
2022-10-11T11:56:30.862Z,100658.75
2022-10-11T11:59:08.242Z,100656.22
2022-10-11T12:01:44.318Z,100666.47
2022-10-11T12:04:27.025Z,100666.00
2022-10-11T12:07:17.853Z,100673.09
2022-10-11T12:09:53.075Z,100673.63
2022-10-11T12:12:31.733Z,100662.44
2022-10-11T12:15:13.395Z,100669.50
2022-10-11T12:18:04.599Z,100663.69
2022-10-11T12:20:37.231Z,100674.47
2022-10-11T12:23:40.769Z,100658.44
2022-10-11T12:26:37.804Z,100671.47
2022-10-11T12:29:28.838Z,100668.28
2022-10-11T12:32:27.751Z,100670.38
2022-10-11T12:35:29.794Z,100673.06
2022-10-11T12:38:15.747Z,100676.91
2022-10-11T12:40:47.374Z,100685.53
2022-10-11T12:43:31.812Z,100682.31
2022-10-11T12:46:33.406Z,100685.47
2022-10-11T12:49:15.809Z,100680.22
2022-10-11T12:51:54.530Z,100687.81
2022-10-11T12:54:47.038Z,100679.34
2022-10-11T12:57:46.492Z,100687.13
2022-10-11T13:00:23.839Z,100683.16
2022-10-11T13:02:53.109Z,100680.75
2022-10-11T13:05:27.316Z,100684.75
2022-10-11T13:07:58.896Z,100687.13
2022-10-11T13:10:38.414Z,100687.00
2022-10-11T13:13:11.238Z,100700.00
2022-10-11T13:15:43.539Z,100689.81
2022-10-11T13:18:15.762Z,100688.28
2022-10-11T13:20:45.230Z,100687.72
2022-10-11T13:23:23.536Z,100684.03
2022-10-11T13:25:54.820Z,100694.47
2022-10-11T13:28:24.722Z,100690.16
2022-10-11T13:30:56.357Z,100694.34
2022-10-11T13:33:32.234Z,100689.16
2022-10-11T13:36:02.102Z,100689.78
2022-10-11T13:38:33.096Z,100699.81
2022-10-11T13:41:06.584Z,100697.16
2022-10-11T13:43:35.673Z,100700.22
2022-10-11T13:46:06.217Z,100696.81
2022-10-11T13:48:41.502Z,100698.91
2022-10-11T13:51:17.089Z,100694.94
2022-10-11T13:53:59.764Z,100700.69
2022-10-11T13:56:32.918Z,100695.66
2022-10-11T13:59:02.091Z,100691.81
2022-10-11T14:01:39.744Z,100694.47
2022-10-11T14:04:10.224Z,100703.50
2022-10-11T14:06:45.489Z,100704.94
2022-10-11T14:09:23.590Z,100705.06
2022-10-11T14:11:53.830Z,100706.06
2022-10-11T14:14:42.194Z,100711.16
2022-10-11T14:17:17.381Z,100711.72
2022-10-11T14:19:47.492Z,100715.63
2022-10-11T14:22:17.802Z,100709.94
2022-10-11T14:24:49.200Z,100710.34
2022-10-11T14:27:24.128Z,100710.81
2022-10-11T14:30:20.291Z,100716.34
2022-10-11T14:32:42.502Z,100714.59
2022-10-11T14:35:16.870Z,100718.53
2022-10-11T14:37:46.194Z,100719.44
2022-10-11T14:40:17.928Z,100719.44
2022-10-11T14:42:47.621Z,100722.84
2022-10-11T14:45:16.312Z,100720.63
2022-10-11T14:47:45.724Z,100723.44
2022-10-11T14:50:36.615Z,100725.28
2022-10-11T14:53:05.959Z,100727.25
2022-10-11T14:55:35.763Z,100732.91
2022-10-11T14:58:07.419Z,100733.19
2022-10-11T15:00:36.818Z,100737.09
2022-10-11T15:03:07.327Z,100736.97
2022-10-11T15:05:36.467Z,100738.63
2022-10-11T15:08:06.464Z,100737.66
2022-10-11T15:10:38.317Z,100740.94
2022-10-11T15:13:08.670Z,100742.47
2022-10-11T15:15:41.061Z,100737.53
2022-10-11T15:18:13.535Z,100744.34
2022-10-11T15:20:43.895Z,100745.13
2022-10-11T15:23:13.114Z,100741.88
2022-10-11T15:25:43.099Z,100753.91
2022-10-11T15:28:21.942Z,100750.91
2022-10-11T15:30:50.630Z,100743.66
2022-10-11T15:33:19.302Z,100743.53
2022-10-11T15:35:49.838Z,100754.78
2022-10-11T15:38:20.503Z,100765.13
2022-10-11T15:40:51.487Z,100759.63
2022-10-11T15:43:24.703Z,100764.53
2022-10-11T15:45:53.464Z,100762.63
2022-10-11T15:48:26.447Z,100768.38
2022-10-11T15:50:55.688Z,100774.09
2022-10-11T15:53:26.374Z,100769.34
2022-10-11T15:55:57.910Z,100776.97
2022-10-11T15:58:30.337Z,100778.59
2022-10-11T16:01:02.757Z,100779.28
2022-10-11T16:03:32.038Z,100781.66
2022-10-11T16:06:05.204Z,100781.34
2022-10-11T16:08:35.265Z,100786.28
2022-10-11T16:11:04.348Z,100789.38
2022-10-11T16:13:34.709Z,100794.25
2022-10-11T16:16:04.133Z,100796.53
2022-10-11T16:18:35.666Z,100796.97
2022-10-11T16:21:07.335Z,100804.56
2022-10-11T16:23:36.824Z,100809.41
2022-10-11T16:26:09.381Z,100804.41
2022-10-11T16:28:42.170Z,100804.69
2022-10-11T16:31:11.892Z,100805.72
2022-10-11T16:33:46.110Z,100813.88
2022-10-11T16:36:38.926Z,100807.13
2022-10-11T16:39:10.567Z,100810.84
2022-10-11T16:41:39.500Z,100807.53
2022-10-11T16:44:12.761Z,100806.84
2022-10-11T16:46:41.436Z,100807.06
2022-10-11T16:49:10.183Z,100809.06
2022-10-11T16:51:41.569Z,100805.81
2022-10-11T16:54:10.570Z,100810.22
2022-10-11T16:56:40.174Z,100815.56
2022-10-11T16:59:10.456Z,100815.59
2022-10-11T17:01:39.414Z,100822.63
2022-10-11T17:04:08.163Z,100817.50
2022-10-11T17:06:36.829Z,100820.09
2022-10-11T17:09:06.909Z,100825.53
2022-10-11T17:11:35.624Z,100828.16
2022-10-11T17:14:06.227Z,100824.75
2022-10-11T17:16:36.806Z,100824.88
2022-10-11T17:19:06.018Z,100827.59
2022-10-11T17:21:34.636Z,100835.81
2022-10-11T17:24:03.771Z,100839.34
2022-10-11T17:26:33.369Z,100842.16
2022-10-11T17:29:03.651Z,100840.44
2022-10-11T17:31:32.549Z,100848.34
2022-10-11T17:34:02.557Z,100842.44
2022-10-11T17:36:34.899Z,100850.59
2022-10-11T17:39:06.624Z,100835.50
2022-10-11T17:41:35.704Z,100855.66
2022-10-11T17:44:05.532Z,100855.06
2022-10-11T17:46:34.021Z,100853.56
2022-10-11T17:49:08.435Z,100853.72
2022-10-11T17:51:38.584Z,100858.22
2022-10-11T17:54:12.411Z,100859.19
2022-10-11T17:56:42.640Z,100865.34
2022-10-11T17:59:17.013Z,100867.94
2022-10-11T18:01:47.183Z,100868.81
2022-10-11T18:04:17.905Z,100863.66
2022-10-11T18:06:47.996Z,100872.53
2022-10-11T18:09:19.572Z,100866.53
2022-10-11T18:11:48.685Z,100869.22
2022-10-11T18:14:17.622Z,100866.63
2022-10-11T18:16:46.646Z,100871.84
2022-10-11T18:19:17.842Z,100864.91
2022-10-11T18:21:46.614Z,100871.06
2022-10-11T18:24:17.076Z,100860.69
2022-10-11T18:26:46.690Z,100865.13
2022-10-11T18:29:15.507Z,100862.63
2022-10-11T18:31:44.539Z,100856.69
2022-10-11T18:34:14.370Z,100863.03
2022-10-11T18:36:44.565Z,100862.38
2022-10-11T18:39:16.521Z,100860.06
2022-10-11T18:41:45.537Z,100857.72
2022-10-11T18:44:16.250Z,100856.13
2022-10-11T18:46:45.024Z,100858.91
2022-10-11T18:49:14.080Z,100862.50
2022-10-11T18:51:44.299Z,100862.53
2022-10-11T18:54:16.938Z,100871.34
2022-10-11T18:56:50.883Z,100875.97
2022-10-11T18:59:20.916Z,100874.34
2022-10-11T19:01:52.322Z,100878.81
2022-10-11T19:04:21.298Z,100881.59
2022-10-11T19:06:52.795Z,100875.69
2022-10-11T19:09:23.541Z,100878.41
2022-10-11T19:11:53.078Z,100879.47
2022-10-11T19:14:25.850Z,100883.13
2022-10-11T19:16:55.642Z,100885.91
2022-10-11T19:19:27.206Z,100880.00
2022-10-11T19:21:58.067Z,100881.03
2022-10-11T19:24:29.179Z,100882.88
2022-10-11T19:27:02.354Z,100883.03
2022-10-11T19:29:32.558Z,100891.97
2022-10-11T19:32:03.868Z,100895.66
2022-10-11T19:34:32.998Z,100894.03
2022-10-11T19:37:04.231Z,100893.31
2022-10-11T19:39:33.138Z,100900.34
2022-10-11T19:42:01.978Z,100899.53
2022-10-11T19:44:34.437Z,100896.97
2022-10-11T19:47:06.326Z,100904.81
2022-10-11T19:49:35.350Z,100910.03
2022-10-11T19:52:05.468Z,100911.81
2022-10-11T19:54:34.192Z,100904.81
2022-10-11T19:57:02.846Z,100906.53
2022-10-11T19:59:31.450Z,100903.13
2022-10-11T20:02:00.807Z,100900.50
2022-10-11T20:07:19.854Z,100907.56
2022-10-11T20:09:48.783Z,100915.47
2022-10-11T20:12:17.515Z,100912.94
2022-10-11T20:14:46.238Z,100922.53
2022-10-11T20:17:15.919Z,100920.88
2022-10-11T20:19:44.604Z,100919.16
2022-10-11T20:22:13.380Z,100919.16
2022-10-11T20:24:43.718Z,100920.06
2022-10-11T20:27:12.730Z,100920.94
2022-10-11T20:29:41.186Z,100924.38
2022-10-11T20:32:09.782Z,100925.22
2022-10-11T20:34:39.727Z,100926.94
2022-10-11T20:37:08.446Z,100929.56
2022-10-11T20:39:38.152Z,100932.25
2022-10-11T20:42:08.205Z,100930.56
2022-10-11T20:44:37.340Z,100929.75
2022-10-11T20:47:06.521Z,100936.75
2022-10-11T20:49:35.927Z,100935.13
2022-10-11T20:52:04.742Z,100936.97
2022-10-11T20:54:34.899Z,100931.84
2022-10-11T20:57:03.889Z,100931.91
2022-10-11T20:59:34.363Z,100929.34
2022-10-11T21:02:03.306Z,100925.91
2022-10-11T21:04:32.870Z,100935.50
2022-10-11T21:07:01.558Z,100933.78
2022-10-11T21:09:30.319Z,100933.81
2022-10-11T21:11:59.113Z,100926.91
2022-10-11T21:14:28.327Z,100934.75
2022-10-11T21:16:58.838Z,100934.81
2022-10-11T21:19:27.804Z,100932.22
2022-10-11T21:21:56.839Z,100939.97
2022-10-11T21:24:25.777Z,100933.00
2022-10-11T21:26:59.588Z,100933.88
2022-10-11T21:29:29.335Z,100928.69
2022-10-11T21:31:59.695Z,100937.31
2022-10-11T21:34:28.762Z,100931.25
2022-10-11T21:36:57.325Z,100932.97
2022-10-11T21:39:26.419Z,100935.56
2022-10-11T21:41:55.438Z,100938.13
2022-10-11T21:44:24.274Z,100940.78
2022-10-11T21:47:08.445Z,100942.56
2022-10-11T21:49:41.517Z,100948.66
2022-10-11T21:52:11.335Z,100940.88
2022-10-11T21:54:40.090Z,100944.34
2022-10-11T21:57:08.768Z,100940.88
2022-10-11T21:59:37.766Z,100943.47
2022-10-11T22:02:06.782Z,100946.94
2022-10-11T22:04:35.930Z,100940.03
2022-10-11T22:07:06.677Z,100947.81
2022-10-11T22:09:36.548Z,100949.53
2022-10-11T22:12:06.068Z,100939.16
2022-10-11T22:14:34.785Z,100945.19
2022-10-11T22:17:03.658Z,100939.97
2022-10-11T22:19:32.337Z,100939.16
2022-10-11T22:22:01.367Z,100938.28
2022-10-11T22:24:32.719Z,100945.22
2022-10-11T22:27:01.497Z,100949.56
2022-10-11T22:29:34.048Z,100946.94
2022-10-11T22:32:03.302Z,100947.81
2022-10-11T22:34:32.900Z,100951.31
2022-10-11T22:37:01.965Z,100942.75
2022-10-11T22:39:32.528Z,100945.44
2022-10-11T22:42:01.235Z,100949.81
2022-10-11T22:44:30.040Z,100953.34
2022-10-11T22:46:59.278Z,100948.19
2022-10-11T22:49:28.020Z,100952.56
2022-10-11T22:51:56.577Z,100954.31
2022-10-11T22:54:25.215Z,100944.81
2022-10-11T23:21:10.974Z,100956.03
2022-10-11T23:23:39.970Z,100956.09
2022-10-11T23:26:10.220Z,100959.56
2022-10-11T23:28:39.167Z,100963.06
2022-10-11T23:31:10.477Z,100963.06
2022-10-11T23:33:39.052Z,100963.97
2022-10-11T23:36:14.910Z,100963.13
2022-10-11T23:38:45.296Z,100964.88
2022-10-11T23:41:14.646Z,100967.47
2022-10-11T23:43:43.621Z,100966.66
2022-10-11T23:46:12.259Z,100970.13
2022-10-11T23:48:40.894Z,100967.53
2022-10-11T23:51:09.897Z,100965.78
2022-10-11T23:53:39.017Z,100969.25
2022-10-11T23:56:11.058Z,100974.44
2022-10-11T23:58:40.040Z,100964.09
